Terminal Aerodrome Forecast
Issued by NWS

Home | Current Version | Previous Version | Text Only | Print | Product List | Glossary Off
Versions: 1 2 3 4 5 6 7 8 9 10 11 12

000
FTUS43 KFGF 191132
TAFBJI
TAF
KBJI 191132Z 1912/2012 36008KT P6SM OVC006
     FM191600 01016G25KT P6SM FEW250
     FM200200 36005KT P6SM FEW250=

USA.gov is the U.S. government's official web portal to all federal, state and local government web resources and services.